sensor_id;sensor_type;location;lat;lon;timestamp;pressure;altitude;pressure_sealevel;temperature;humidity
2339;BME280;1180;51.438;6.978;2022-12-18T00:01:25;101473.84;;;1.00;65.19
2339;BME280;1180;51.438;6.978;2022-12-18T00:03:52;101473.00;;;0.98;65.53
2339;BME280;1180;51.438;6.978;2022-12-18T00:06:18;101476.38;;;0.91;65.52
2339;BME280;1180;51.438;6.978;2022-12-18T00:08:44;101482.25;;;1.08;64.94
2339;BME280;1180;51.438;6.978;2022-12-18T00:11:12;101490.69;;;1.03;64.59
2339;BME280;1180;51.438;6.978;2022-12-18T00:13:38;101498.28;;;0.92;64.22
2339;BME280;1180;51.438;6.978;2022-12-18T00:16:09;101501.66;;;0.97;64.60
2339;BME280;1180;51.438;6.978;2022-12-18T00:18:35;101505.00;;;0.96;64.64
2339;BME280;1180;51.438;6.978;2022-12-18T00:21:03;101494.91;;;1.04;64.39
2339;BME280;1180;51.438;6.978;2022-12-18T00:23:30;101494.91;;;1.04;63.96
2339;BME280;1180;51.438;6.978;2022-12-18T00:26:10;101487.31;;;0.93;64.20
2339;BME280;1180;51.438;6.978;2022-12-18T00:28:36;101492.34;;;0.88;64.07
2339;BME280;1180;51.438;6.978;2022-12-18T00:31:06;101487.31;;;0.94;64.29
2339;BME280;1180;51.438;6.978;2022-12-18T00:33:31;101488.97;;;0.83;64.25
2339;BME280;1180;51.438;6.978;2022-12-18T00:36:08;101488.97;;;0.86;64.65
2339;BME280;1180;51.438;6.978;2022-12-18T00:38:35;101483.94;;;0.94;64.51
2339;BME280;1180;51.438;6.978;2022-12-18T00:41:01;101495.75;;;0.98;64.06
2339;BME280;1180;51.438;6.978;2022-12-18T00:43:26;101490.69;;;0.85;64.57
2339;BME280;1180;51.438;6.978;2022-12-18T00:45:52;101488.13;;;0.82;64.78
2339;BME280;1180;51.438;6.978;2022-12-18T00:48:17;101475.50;;;0.78;64.85
2339;BME280;1180;51.438;6.978;2022-12-18T00:50:43;101483.09;;;0.75;64.89
2339;BME280;1180;51.438;6.978;2022-12-18T00:53:11;101482.25;;;0.82;64.74
2339;BME280;1180;51.438;6.978;2022-12-18T00:55:38;101482.25;;;0.73;64.50
2339;BME280;1180;51.438;6.978;2022-12-18T00:58:04;101483.94;;;0.80;64.37
2339;BME280;1180;51.438;6.978;2022-12-18T01:00:29;101475.50;;;0.81;64.30
2339;BME280;1180;51.438;6.978;2022-12-18T01:02:54;101477.19;;;0.76;64.45
2339;BME280;1180;51.438;6.978;2022-12-18T01:05:20;101484.75;;;0.71;64.17
2339;BME280;1180;51.438;6.978;2022-12-18T01:07:45;101482.25;;;0.73;64.39
2339;BME280;1180;51.438;6.978;2022-12-18T01:10:11;101481.38;;;0.72;64.47
2339;BME280;1180;51.438;6.978;2022-12-18T01:12:37;101493.19;;;0.71;64.50
2339;BME280;1180;51.438;6.978;2022-12-18T01:15:03;101481.38;;;0.81;63.99
2339;BME280;1180;51.438;6.978;2022-12-18T01:17:28;101483.09;;;0.89;63.27
2339;BME280;1180;51.438;6.978;2022-12-18T01:19:54;101480.56;;;0.90;63.07
2339;BME280;1180;51.438;6.978;2022-12-18T01:22:19;101482.25;;;0.94;63.51
2339;BME280;1180;51.438;6.978;2022-12-18T01:24:44;101486.47;;;1.03;63.38
2339;BME280;1180;51.438;6.978;2022-12-18T01:27:10;101476.38;;;1.08;63.53
2339;BME280;1180;51.438;6.978;2022-12-18T01:29:35;101481.41;;;1.12;63.83
2339;BME280;1180;51.438;6.978;2022-12-18T01:32:00;101477.19;;;1.14;63.89
2339;BME280;1180;51.438;6.978;2022-12-18T01:34:26;101485.63;;;1.21;63.61
2339;BME280;1180;51.438;6.978;2022-12-18T01:36:51;101481.41;;;1.20;63.62
2339;BME280;1180;51.438;6.978;2022-12-18T01:39:18;101472.16;;;1.18;63.90
2339;BME280;1180;51.438;6.978;2022-12-18T01:41:44;101475.53;;;1.18;64.08
2339;BME280;1180;51.438;6.978;2022-12-18T01:52:52;101472.13;;;1.11;64.70
2339;BME280;1180;51.438;6.978;2022-12-18T01:55:20;101464.56;;;1.14;65.26
2339;BME280;1180;51.438;6.978;2022-12-18T01:57:47;101455.28;;;1.21;65.21
2339;BME280;1180;51.438;6.978;2022-12-18T02:00:18;101459.50;;;1.27;64.90
2339;BME280;1180;51.438;6.978;2022-12-18T02:02:45;101452.78;;;1.23;65.23
2339;BME280;1180;51.438;6.978;2022-12-18T02:05:12;101462.03;;;1.19;65.71
2339;BME280;1180;51.438;6.978;2022-12-18T02:13:15;101459.50;;;0.93;66.62
2339;BME280;1180;51.438;6.978;2022-12-18T02:16:42;101467.09;;;1.08;67.10
2339;BME280;1180;51.438;6.978;2022-12-18T02:18:55;101467.09;;;1.11;66.95
2339;BME280;1180;51.438;6.978;2022-12-18T02:21:33;101467.09;;;1.19;66.79
2339;BME280;1180;51.438;6.978;2022-12-18T02:24:11;101473.00;;;1.21;66.71
2339;BME280;1180;51.438;6.978;2022-12-18T02:26:49;101468.78;;;1.14;66.69
2339;BME280;1180;51.438;6.978;2022-12-18T02:29:39;101468.75;;;1.15;66.41
2339;BME280;1180;51.438;6.978;2022-12-18T02:32:13;101457.84;;;1.17;66.57
2339;BME280;1180;51.438;6.978;2022-12-18T02:34:40;101449.41;;;1.24;66.57
2339;BME280;1180;51.438;6.978;2022-12-18T02:37:10;101446.84;;;1.28;66.01
2339;BME280;1180;51.438;6.978;2022-12-18T02:39:40;101439.28;;;1.24;66.36
2339;BME280;1180;51.438;6.978;2022-12-18T02:42:06;101440.09;;;1.27;66.08
2339;BME280;1180;51.438;6.978;2022-12-18T02:44:34;101446.84;;;1.19;66.25
2339;BME280;1180;51.438;6.978;2022-12-18T02:47:01;101446.00;;;1.15;66.70
2339;BME280;1180;51.438;6.978;2022-12-18T02:49:35;101448.56;;;1.11;66.90
2339;BME280;1180;51.438;6.978;2022-12-18T03:01:01;101456.97;;;1.41;66.50
2339;BME280;1180;51.438;6.978;2022-12-18T03:03:38;101464.53;;;1.49;66.03
2339;BME280;1180;51.438;6.978;2022-12-18T03:06:08;101456.97;;;1.41;65.89
2339;BME280;1180;51.438;6.978;2022-12-18T03:08:45;101458.66;;;1.33;66.56
2339;BME280;1180;51.438;6.978;2022-12-18T03:11:13;101459.47;;;1.39;66.32
2339;BME280;1180;51.438;6.978;2022-12-18T03:13:48;101453.59;;;1.37;66.71
2339;BME280;1180;51.438;6.978;2022-12-18T03:16:23;101446.00;;;1.40;66.46
2339;BME280;1180;51.438;6.978;2022-12-18T03:18:54;101443.47;;;1.40;65.97
2339;BME280;1180;51.438;6.978;2022-12-18T03:21:35;101447.72;;;1.34;66.52
2339;BME280;1180;51.438;6.978;2022-12-18T03:24:05;101440.09;;;1.30;66.35
2339;BME280;1180;51.438;6.978;2022-12-18T03:26:33;101432.53;;;1.32;66.46
2339;BME280;1180;51.438;6.978;2022-12-18T03:29:04;101432.50;;;1.43;66.38
2339;BME280;1180;51.438;6.978;2022-12-18T03:31:39;101432.50;;;1.51;65.66
2339;BME280;1180;51.438;6.978;2022-12-18T03:34:09;101434.19;;;1.47;65.62
2339;BME280;1180;51.438;6.978;2022-12-18T03:36:38;101440.09;;;1.24;65.99
2339;BME280;1180;51.438;6.978;2022-12-18T03:39:03;101436.75;;;1.24;66.38
2339;BME280;1180;51.438;6.978;2022-12-18T03:41:46;101437.59;;;1.18;66.43
2339;BME280;1180;51.438;6.978;2022-12-18T03:49:35;101435.03;;;1.35;65.92
2339;BME280;1180;51.438;6.978;2022-12-18T03:52:10;101446.84;;;1.19;65.74
2339;BME280;1180;51.438;6.978;2022-12-18T03:54:38;101442.66;;;1.26;66.26
2339;BME280;1180;51.438;6.978;2022-12-18T03:57:15;101441.78;;;1.41;66.14
2339;BME280;1180;51.438;6.978;2022-12-18T03:59:43;101426.63;;;1.33;65.73
2339;BME280;1180;51.438;6.978;2022-12-18T04:02:10;101429.97;;;1.30;65.63
2339;BME280;1180;51.438;6.978;2022-12-18T04:04:37;101426.63;;;1.27;65.54
2339;BME280;1180;51.438;6.978;2022-12-18T04:07:04;101431.72;;;1.18;65.77
2339;BME280;1180;51.438;6.978;2022-12-18T04:09:31;101429.13;;;1.32;65.56
2339;BME280;1180;51.438;6.978;2022-12-18T04:11:58;101426.59;;;1.28;65.42
2339;BME280;1180;51.438;6.978;2022-12-18T04:14:23;101421.59;;;1.18;65.63
2339;BME280;1180;51.438;6.978;2022-12-18T04:16:48;101426.63;;;0.97;65.91
2339;BME280;1180;51.438;6.978;2022-12-18T04:19:14;101434.22;;;1.02;66.27
2339;BME280;1180;51.438;6.978;2022-12-18T04:21:39;101431.72;;;0.99;65.95
2339;BME280;1180;51.438;6.978;2022-12-18T04:24:05;101433.38;;;1.11;65.78
2339;BME280;1180;51.438;6.978;2022-12-18T04:26:30;101428.31;;;1.09;65.80
2339;BME280;1180;51.438;6.978;2022-12-18T04:28:55;101430.84;;;1.14;65.44
2339;BME280;1180;51.438;6.978;2022-12-18T04:31:21;101434.22;;;1.13;65.25
2339;BME280;1180;51.438;6.978;2022-12-18T04:33:46;101435.09;;;1.17;65.51
2339;BME280;1180;51.438;6.978;2022-12-18T04:36:12;101429.19;;;1.21;65.26
2339;BME280;1180;51.438;6.978;2022-12-18T04:38:37;101419.88;;;1.26;65.19
2339;BME280;1180;51.438;6.978;2022-12-18T04:41:03;101416.50;;;1.35;64.66
2339;BME280;1180;51.438;6.978;2022-12-18T04:43:28;101417.34;;;1.34;64.87
2339;BME280;1180;51.438;6.978;2022-12-18T04:46:04;101417.38;;;1.23;64.79
2339;BME280;1180;51.438;6.978;2022-12-18T04:48:30;101410.63;;;1.17;65.26
2339;BME280;1180;51.438;6.978;2022-12-18T04:50:55;101416.50;;;1.14;65.30
2339;BME280;1180;51.438;6.978;2022-12-18T04:53:20;101414.84;;;1.10;65.35
2339;BME280;1180;51.438;6.978;2022-12-18T04:55:46;101408.94;;;1.11;65.22
2339;BME280;1180;51.438;6.978;2022-12-18T04:58:11;101418.22;;;1.14;65.49
2339;BME280;1180;51.438;6.978;2022-12-18T05:00:36;101408.09;;;1.17;64.85
2339;BME280;1180;51.438;6.978;2022-12-18T05:03:02;101414.00;;;1.24;65.21
2339;BME280;1180;51.438;6.978;2022-12-18T05:05:27;101410.59;;;1.37;64.39
2339;BME280;1180;51.438;6.978;2022-12-18T05:07:53;101411.44;;;1.41;64.38
2339;BME280;1180;51.438;6.978;2022-12-18T05:10:18;101405.53;;;1.34;64.20
2339;BME280;1180;51.438;6.978;2022-12-18T05:12:43;101400.47;;;1.26;64.45
2339;BME280;1180;51.438;6.978;2022-12-18T05:15:28;101398.81;;;1.27;64.57
2339;BME280;1180;51.438;6.978;2022-12-18T05:17:55;101392.06;;;1.32;64.82
2339;BME280;1180;51.438;6.978;2022-12-18T05:20:21;101397.13;;;1.37;64.17
2339;BME280;1180;51.438;6.978;2022-12-18T05:22:46;101394.56;;;1.38;63.57
2339;BME280;1180;51.438;6.978;2022-12-18T05:25:12;101392.03;;;1.46;63.42
2339;BME280;1180;51.438;6.978;2022-12-18T05:27:37;101394.56;;;1.43;63.67
2339;BME280;1180;51.438;6.978;2022-12-18T05:30:03;101397.94;;;1.42;63.76
2339;BME280;1180;51.438;6.978;2022-12-18T05:32:28;101402.13;;;1.51;63.51
2339;BME280;1180;51.438;6.978;2022-12-18T05:34:54;101397.03;;;1.55;62.98
2339;BME280;1180;51.438;6.978;2022-12-18T05:37:19;101396.22;;;1.49;63.13
2339;BME280;1180;51.438;6.978;2022-12-18T05:39:45;101408.00;;;1.54;63.04
2339;BME280;1180;51.438;6.978;2022-12-18T05:42:11;101403.00;;;1.50;62.83
2339;BME280;1180;51.438;6.978;2022-12-18T05:44:36;101406.38;;;1.44;63.01
2339;BME280;1180;51.438;6.978;2022-12-18T05:47:01;101408.91;;;1.38;63.16
2339;BME280;1180;51.438;6.978;2022-12-18T05:49:27;101411.44;;;1.41;63.62
2339;BME280;1180;51.438;6.978;2022-12-18T05:51:53;101413.13;;;1.39;63.58
2339;BME280;1180;51.438;6.978;2022-12-18T05:54:18;101421.53;;;1.32;63.62
2339;BME280;1180;51.438;6.978;2022-12-18T05:56:43;101413.97;;;1.22;63.54
2339;BME280;1180;51.438;6.978;2022-12-18T05:59:09;101416.53;;;1.16;63.39
2339;BME280;1180;51.438;6.978;2022-12-18T06:01:34;101419.88;;;1.21;63.27
2339;BME280;1180;51.438;6.978;2022-12-18T06:04:00;101428.31;;;1.28;63.07
2339;BME280;1180;51.438;6.978;2022-12-18T06:06:26;101440.97;;;1.36;62.98
2339;BME280;1180;51.438;6.978;2022-12-18T06:08:53;101443.47;;;1.42;62.77
2339;BME280;1180;51.438;6.978;2022-12-18T06:11:24;101444.31;;;1.47;62.36
2339;BME280;1180;51.438;6.978;2022-12-18T06:13:51;101457.78;;;1.51;62.06
2339;BME280;1180;51.438;6.978;2022-12-18T06:16:17;101457.78;;;1.44;62.00
2339;BME280;1180;51.438;6.978;2022-12-18T06:18:42;101471.28;;;1.43;61.94
2339;BME280;1180;51.438;6.978;2022-12-18T06:21:08;101468.78;;;1.39;62.05
2339;BME280;1180;51.438;6.978;2022-12-18T06:23:33;101475.50;;;1.40;61.97
2339;BME280;1180;51.438;6.978;2022-12-18T06:26:13;101469.59;;;1.41;61.97
2339;BME280;1180;51.438;6.978;2022-12-18T06:28:38;101468.78;;;1.36;61.91
2339;BME280;1180;51.438;6.978;2022-12-18T06:31:04;101462.84;;;1.41;61.95
2339;BME280;1180;51.438;6.978;2022-12-18T06:33:30;101466.25;;;1.31;61.82
2339;BME280;1180;51.438;6.978;2022-12-18T06:36:10;101472.13;;;1.22;62.04
2339;BME280;1180;51.438;6.978;2022-12-18T06:38:37;101458.66;;;1.28;61.66
2339;BME280;1180;51.438;6.978;2022-12-18T06:41:13;101452.75;;;1.18;62.02
2339;BME280;1180;51.438;6.978;2022-12-18T06:43:39;101445.19;;;1.10;62.49
2339;BME280;1180;51.438;6.978;2022-12-18T06:46:05;101448.56;;;1.02;62.45
2339;BME280;1180;51.438;6.978;2022-12-18T06:48:31;101438.44;;;1.08;62.57
2339;BME280;1180;51.438;6.978;2022-12-18T06:50:56;101435.91;;;1.15;62.48
2339;BME280;1180;51.438;6.978;2022-12-18T06:53:22;101439.28;;;1.18;61.80
2339;BME280;1180;51.438;6.978;2022-12-18T06:55:48;101429.16;;;1.27;61.34
2339;BME280;1180;51.438;6.978;2022-12-18T06:58:13;101426.66;;;1.21;61.48
2339;BME280;1180;51.438;6.978;2022-12-18T07:00:38;101421.56;;;1.16;61.11
2339;BME280;1180;51.438;6.978;2022-12-18T07:03:04;101415.66;;;1.12;61.21
2339;BME280;1180;51.438;6.978;2022-12-18T07:05:29;101403.88;;;1.13;60.78
2339;BME280;1180;51.438;6.978;2022-12-18T07:07:55;101413.13;;;1.15;60.59
2339;BME280;1180;51.438;6.978;2022-12-18T07:10:20;101398.84;;;0.99;60.57
2339;BME280;1180;51.438;6.978;2022-12-18T07:12:45;101401.38;;;1.02;60.68
2339;BME280;1180;51.438;6.978;2022-12-18T07:15:11;101402.19;;;1.12;60.26
2339;BME280;1180;51.438;6.978;2022-12-18T07:17:36;101394.63;;;1.03;60.26
2339;BME280;1180;51.438;6.978;2022-12-18T07:20:02;101392.06;;;1.13;59.74
2339;BME280;1180;51.438;6.978;2022-12-18T07:22:55;101393.72;;;1.28;59.23
2339;BME280;1180;51.438;6.978;2022-12-18T07:25:20;101397.94;;;1.39;58.50
2339;BME280;1180;51.438;6.978;2022-12-18T07:27:46;101396.25;;;1.44;57.84
2339;BME280;1180;51.438;6.978;2022-12-18T07:30:11;101408.88;;;1.46;57.79
2339;BME280;1180;51.438;6.978;2022-12-18T07:32:36;101397.97;;;1.36;57.89
2339;BME280;1180;51.438;6.978;2022-12-18T07:35:02;101392.84;;;1.51;57.64
2339;BME280;1180;51.438;6.978;2022-12-18T07:37:27;101392.81;;;1.57;57.46
2339;BME280;1180;51.438;6.978;2022-12-18T07:39:53;101381.03;;;1.58;56.84
2339;BME280;1180;51.438;6.978;2022-12-18T07:42:18;101375.94;;;1.69;56.84
2339;BME280;1180;51.438;6.978;2022-12-18T07:44:56;101381.78;;;1.76;56.70
2339;BME280;1180;51.438;6.978;2022-12-18T07:47:21;101385.13;;;1.82;56.38
2339;BME280;1180;51.438;6.978;2022-12-18T07:49:47;101385.91;;;1.94;56.33
2339;BME280;1180;51.438;6.978;2022-12-18T07:52:12;101381.75;;;1.88;56.12
2339;BME280;1180;51.438;6.978;2022-12-18T07:54:38;101387.63;;;1.88;55.86
2339;BME280;1180;51.438;6.978;2022-12-18T07:57:04;101381.72;;;1.91;56.04
2339;BME280;1180;51.438;6.978;2022-12-18T07:59:30;101377.50;;;1.93;55.52
2339;BME280;1180;51.438;6.978;2022-12-18T08:01:55;101390.97;;;2.01;55.36
2339;BME280;1180;51.438;6.978;2022-12-18T08:04:21;101398.56;;;2.01;55.71
2339;BME280;1180;51.438;6.978;2022-12-18T08:06:46;101392.59;;;2.10;55.49
2339;BME280;1180;51.438;6.978;2022-12-18T08:09:12;101395.22;;;1.88;55.71
2339;BME280;1180;51.438;6.978;2022-12-18T08:11:37;101392.69;;;1.93;55.85
2339;BME280;1180;51.438;6.978;2022-12-18T08:14:02;101390.13;;;2.01;55.44
2339;BME280;1180;51.438;6.978;2022-12-18T08:16:28;101387.50;;;2.12;55.01
2339;BME280;1180;51.438;6.978;2022-12-18T08:18:53;101380.75;;;2.15;55.25
2339;BME280;1180;51.438;6.978;2022-12-18T08:21:23;101370.63;;;2.11;54.78
2339;BME280;1180;51.438;6.978;2022-12-18T08:23:53;101375.72;;;2.11;54.87
2339;BME280;1180;51.438;6.978;2022-12-18T08:26:19;101368.94;;;2.13;54.44
2339;BME280;1180;51.438;6.978;2022-12-18T08:28:45;101357.16;;;2.07;54.02
2339;BME280;1180;51.438;6.978;2022-12-18T08:31:10;101350.31;;;2.22;53.70
2339;BME280;1180;51.438;6.978;2022-12-18T08:33:37;101344.47;;;2.12;53.53
2339;BME280;1180;51.438;6.978;2022-12-18T08:36:03;101345.25;;;2.22;54.00
2339;BME280;1180;51.438;6.978;2022-12-18T08:38:29;101339.34;;;2.23;53.72
2339;BME280;1180;51.438;6.978;2022-12-18T08:41:09;101323.28;;;2.24;52.98
2339;BME280;1180;51.438;6.978;2022-12-18T08:43:35;101313.94;;;2.35;53.28
2339;BME280;1180;51.438;6.978;2022-12-18T08:46:20;101318.94;;;2.41;52.37
2339;BME280;1180;51.438;6.978;2022-12-18T08:48:46;101314.75;;;2.36;52.79
2339;BME280;1180;51.438;6.978;2022-12-18T08:51:12;101321.59;;;2.26;52.68
2339;BME280;1180;51.438;6.978;2022-12-18T08:53:38;101327.34;;;2.47;52.62
2339;BME280;1180;51.438;6.978;2022-12-18T08:56:04;101326.47;;;2.51;52.37
2339;BME280;1180;51.438;6.978;2022-12-18T08:58:30;101336.47;;;2.68;52.18
2339;BME280;1180;51.438;6.978;2022-12-18T09:01:07;101333.06;;;2.70;51.54
2339;BME280;1180;51.438;6.978;2022-12-18T09:03:35;101335.50;;;2.80;51.35
2339;BME280;1180;51.438;6.978;2022-12-18T09:06:01;101320.25;;;2.87;51.29
2339;BME280;1180;51.438;6.978;2022-12-18T09:08:27;101322.63;;;3.01;50.51
2339;BME280;1180;51.438;6.978;2022-12-18T09:10:52;101325.22;;;2.98;50.47
2339;BME280;1180;51.438;6.978;2022-12-18T09:13:18;101320.84;;;3.08;50.25
2339;BME280;1180;51.438;6.978;2022-12-18T09:15:46;101309.81;;;3.15;50.51
2339;BME280;1180;51.438;6.978;2022-12-18T09:18:12;101315.63;;;3.22;49.67
2339;BME280;1180;51.438;6.978;2022-12-18T09:20:38;101306.22;;;3.30;49.80
2339;BME280;1180;51.438;6.978;2022-12-18T09:23:04;101307.13;;;3.26;50.20
2339;BME280;1180;51.438;6.978;2022-12-18T09:25:31;101306.22;;;3.32;49.77
2339;BME280;1180;51.438;6.978;2022-12-18T09:28:15;101305.41;;;3.30;49.88
2339;BME280;1180;51.438;6.978;2022-12-18T09:30:43;101302.94;;;3.24;49.34
2339;BME280;1180;51.438;6.978;2022-12-18T09:33:09;101310.28;;;3.45;49.03
2339;BME280;1180;51.438;6.978;2022-12-18T09:35:38;101309.38;;;3.53;48.37
2339;BME280;1180;51.438;6.978;2022-12-18T09:38:04;101305.81;;;3.66;49.02
2339;BME280;1180;51.438;6.978;2022-12-18T09:40:35;101308.06;;;3.86;49.02
2339;BME280;1180;51.438;6.978;2022-12-18T09:43:04;101309.88;;;3.76;48.04
2339;BME280;1180;51.438;6.978;2022-12-18T09:45:39;101319.09;;;3.85;48.03
2339;BME280;1180;51.438;6.978;2022-12-18T09:48:10;101314.63;;;4.03;47.48
2339;BME280;1180;51.438;6.978;2022-12-18T09:50:42;101314.34;;;4.20;47.31
2339;BME280;1180;51.438;6.978;2022-12-18T09:53:15;101321.84;;;4.29;46.75
2339;BME280;1180;51.438;6.978;2022-12-18T09:55:43;101320.66;;;4.51;46.46
2339;BME280;1180;51.438;6.978;2022-12-18T10:00:35;101322.72;;;4.27;45.64
2339;BME280;1180;51.438;6.978;2022-12-18T10:03:08;101303.13;;;4.35;46.70
2339;BME280;1180;51.438;6.978;2022-12-18T10:05:37;101307.97;;;4.49;45.84
2339;BME280;1180;51.438;6.978;2022-12-18T10:08:22;101292.72;;;4.49;45.51
2339;BME280;1180;51.438;6.978;2022-12-18T10:10:52;101284.31;;;4.45;45.88
2339;BME280;1180;51.438;6.978;2022-12-18T10:16:17;101273.72;;;4.70;45.73
2339;BME280;1180;51.438;6.978;2022-12-18T10:21:32;101285.06;;;4.98;45.41
2339;BME280;1180;51.438;6.978;2022-12-18T10:26:31;101254.25;;;5.12;44.68
2339;BME280;1180;51.438;6.978;2022-12-18T10:28:58;101256.75;;;5.13;44.38
2339;BME280;1180;51.438;6.978;2022-12-18T10:31:24;101255.59;;;5.30;44.33
2339;BME280;1180;51.438;6.978;2022-12-18T10:33:50;101258.28;;;5.22;43.93
2339;BME280;1180;51.438;6.978;2022-12-18T10:36:16;101259.81;;;5.31;44.43
2339;BME280;1180;51.438;6.978;2022-12-18T10:38:41;101250.63;;;5.24;43.53
2339;BME280;1180;51.438;6.978;2022-12-18T10:43:47;101256.31;;;5.37;43.73
2339;BME280;1180;51.438;6.978;2022-12-18T10:46:17;101257.44;;;5.62;45.91
2339;BME280;1180;51.438;6.978;2022-12-18T10:54:19;101244.53;;;6.08;43.99
2339;BME280;1180;51.438;6.978;2022-12-18T10:56:46;101225.66;;;6.17;42.96
2339;BME280;1180;51.438;6.978;2022-12-18T10:59:14;101231.09;;;6.03;42.88
2339;BME280;1180;51.438;6.978;2022-12-18T11:04:20;101223.66;;;5.92;43.07
2339;BME280;1180;51.438;6.978;2022-12-18T11:06:55;101220.72;;;6.09;43.07
2339;BME280;1180;51.438;6.978;2022-12-18T11:09:29;101213.00;;;6.12;43.92
2339;BME280;1180;51.438;6.978;2022-12-18T11:11:58;101209.81;;;6.04;43.31
2339;BME280;1180;51.438;6.978;2022-12-18T11:14:30;101212.91;;;6.17;43.16
2339;BME280;1180;51.438;6.978;2022-12-18T11:16:58;101210.63;;;6.04;42.30
2339;BME280;1180;51.438;6.978;2022-12-18T11:19:38;101215.75;;;6.04;43.20
2339;BME280;1180;51.438;6.978;2022-12-18T11:24:59;101197.63;;;6.15;43.15
2339;BME280;1180;51.438;6.978;2022-12-18T11:27:26;101193.88;;;6.29;43.02
2339;BME280;1180;51.438;6.978;2022-12-18T11:30:07;101191.84;;;6.42;43.24
2339;BME280;1180;51.438;6.978;2022-12-18T11:32:37;101190.84;;;6.47;42.90
2339;BME280;1180;51.438;6.978;2022-12-18T11:35:29;101189.34;;;6.40;41.85
2339;BME280;1180;51.438;6.978;2022-12-18T11:38:02;101188.72;;;6.32;42.10
2339;BME280;1180;51.438;6.978;2022-12-18T11:40:40;101181.53;;;6.46;42.21
2339;BME280;1180;51.438;6.978;2022-12-18T11:43:10;101170.28;;;6.54;42.28
2339;BME280;1180;51.438;6.978;2022-12-18T11:45:49;101162.47;;;6.60;41.94
2339;BME280;1180;51.438;6.978;2022-12-18T11:50:51;101148.78;;;6.64;42.13
2339;BME280;1180;51.438;6.978;2022-12-18T11:53:18;101147.84;;;6.67;41.77
2339;BME280;1180;51.438;6.978;2022-12-18T11:58:49;101155.97;;;6.79;41.90
2339;BME280;1180;51.438;6.978;2022-12-18T12:01:47;101154.03;;;6.88;41.87
2339;BME280;1180;51.438;6.978;2022-12-18T12:04:44;101144.59;;;6.90;43.07
2339;BME280;1180;51.438;6.978;2022-12-18T12:07:49;101151.34;;;6.92;43.64
2339;BME280;1180;51.438;6.978;2022-12-18T12:15:49;101156.28;;;6.99;44.01
2339;BME280;1180;51.438;6.978;2022-12-18T12:18:38;101155.44;;;6.98;44.19
2339;BME280;1180;51.438;6.978;2022-12-18T12:21:13;101146.06;;;6.99;44.40
2339;BME280;1180;51.438;6.978;2022-12-18T12:29:01;101141.28;;;6.88;45.44
2339;BME280;1180;51.438;6.978;2022-12-18T12:34:19;101131.16;;;6.85;44.40
2339;BME280;1180;51.438;6.978;2022-12-18T12:39:21;101128.66;;;6.83;43.97
2339;BME280;1180;51.438;6.978;2022-12-18T12:41:48;101127.03;;;6.81;43.43
2339;BME280;1180;51.438;6.978;2022-12-18T12:44:43;101129.53;;;6.82;43.24
2339;BME280;1180;51.438;6.978;2022-12-18T12:47:32;101129.53;;;6.82;43.28
2339;BME280;1180;51.438;6.978;2022-12-18T12:50:01;101122.59;;;6.87;43.29
2339;BME280;1180;51.438;6.978;2022-12-18T12:52:37;101124.56;;;6.77;43.16
2339;BME280;1180;51.438;6.978;2022-12-18T12:55:05;101114.28;;;6.81;42.92
2339;BME280;1180;51.438;6.978;2022-12-18T12:57:38;101112.72;;;6.75;43.19
2339;BME280;1180;51.438;6.978;2022-12-18T13:00:13;101107.72;;;6.72;43.40
2339;BME280;1180;51.438;6.978;2022-12-18T13:05:28;101112.38;;;6.57;42.32
2339;BME280;1180;51.438;6.978;2022-12-18T13:08:05;101116.78;;;6.52;42.93
2339;BME280;1180;51.438;6.978;2022-12-18T13:10:41;101117.44;;;6.59;42.90
2339;BME280;1180;51.438;6.978;2022-12-18T13:13:09;101122.78;;;6.51;43.88
2339;BME280;1180;51.438;6.978;2022-12-18T13:15:40;101115.03;;;6.54;43.21
2339;BME280;1180;51.438;6.978;2022-12-18T13:20:36;101113.56;;;6.45;44.30
2339;BME280;1180;51.438;6.978;2022-12-18T13:25:47;101098.72;;;6.30;44.20
2339;BME280;1180;51.438;6.978;2022-12-18T13:28:14;101100.31;;;6.32;44.49
2339;BME280;1180;51.438;6.978;2022-12-18T13:38:23;101085.97;;;6.30;45.63
2339;BME280;1180;51.438;6.978;2022-12-18T13:40:58;101078.56;;;6.20;45.95
2339;BME280;1180;51.438;6.978;2022-12-18T13:46:01;101071.94;;;6.15;45.65
2339;BME280;1180;51.438;6.978;2022-12-18T13:48:27;101066.78;;;6.16;45.91
2339;BME280;1180;51.438;6.978;2022-12-18T13:51:04;101061.69;;;6.16;45.75
2339;BME280;1180;51.438;6.978;2022-12-18T13:53:35;101058.94;;;6.22;45.92
2339;BME280;1180;51.438;6.978;2022-12-18T13:56:03;101043.72;;;6.21;46.35
2339;BME280;1180;51.438;6.978;2022-12-18T13:58:28;101046.81;;;6.01;46.21
2339;BME280;1180;51.438;6.978;2022-12-18T14:00:54;101039.91;;;6.04;45.36
2339;BME280;1180;51.438;6.978;2022-12-18T14:03:25;101031.53;;;6.01;45.87
2339;BME280;1180;51.438;6.978;2022-12-18T14:06:00;101040.03;;;6.00;45.88
2339;BME280;1180;51.438;6.978;2022-12-18T14:08:32;101026.19;;;6.10;45.83
2339;BME280;1180;51.438;6.978;2022-12-18T14:10:58;101010.97;;;6.07;45.64
2339;BME280;1180;51.438;6.978;2022-12-18T14:13:37;101006.53;;;5.82;46.13
2339;BME280;1180;51.438;6.978;2022-12-18T14:16:06;101017.31;;;5.90;46.12
2339;BME280;1180;51.438;6.978;2022-12-18T14:18:46;101017.25;;;5.93;46.39
2339;BME280;1180;51.438;6.978;2022-12-18T14:21:25;100999.56;;;5.89;45.79
2339;BME280;1180;51.438;6.978;2022-12-18T14:24:14;101001.94;;;5.93;46.29
2339;BME280;1180;51.438;6.978;2022-12-18T14:26:40;101006.94;;;5.98;46.24
2339;BME280;1180;51.438;6.978;2022-12-18T14:29:22;101003.56;;;5.98;46.36
2339;BME280;1180;51.438;6.978;2022-12-18T14:34:31;100996.75;;;5.98;46.04
2339;BME280;1180;51.438;6.978;2022-12-18T14:36:57;100997.63;;;5.97;46.74
2339;BME280;1180;51.438;6.978;2022-12-18T14:39:22;100998.50;;;5.96;46.35
2339;BME280;1180;51.438;6.978;2022-12-18T14:41:50;100995.97;;;5.95;46.85
2339;BME280;1180;51.438;6.978;2022-12-18T14:44:16;100999.59;;;5.87;46.41
2339;BME280;1180;51.438;6.978;2022-12-18T14:46:44;100998.41;;;6.01;54.33
2339;BME280;1180;51.438;6.978;2022-12-18T14:49:30;100987.16;;;6.38;52.55
2339;BME280;1180;51.438;6.978;2022-12-18T14:52:01;100981.06;;;6.42;48.00
2339;BME280;1180;51.438;6.978;2022-12-18T14:54:29;100974.66;;;6.29;47.57
2339;BME280;1180;51.438;6.978;2022-12-18T14:57:25;100970.72;;;6.18;48.04
2339;BME280;1180;51.438;6.978;2022-12-18T14:59:51;100976.66;;;6.19;47.13
2339;BME280;1180;51.438;6.978;2022-12-18T15:02:21;100976.88;;;6.11;46.64
2339;BME280;1180;51.438;6.978;2022-12-18T15:04:47;100981.28;;;6.06;46.48
2339;BME280;1180;51.438;6.978;2022-12-18T15:07:26;100973.72;;;6.03;46.21
2339;BME280;1180;51.438;6.978;2022-12-18T15:10:26;100969.50;;;6.02;46.19